CMB812 Details

Departure: Bucholz AAF Airport (PKWA)
Arrival: Daniel K Inouye International Airport (PHNL)
Route: NDJ 1130N/17200E MANRE R584 MCFLY R584 CHOKO
Notes: USTRANSCOM CONTRACT FLIGHT


Current Weather Information
PKWA 181520Z AUTO 09016KT 10SM SCT027 SCT034 27/22 A2981 RMK AO2 T02700219
PHNL 181453Z 33005KT 10SM CLR 18/13 A3002 RMK AO2 SLP165 T01830128 56008